sensor_id;sensor_type;location;lat;lon;timestamp;P1;durP1;ratioP1;P2;durP2;ratioP2
77722;SDS011;67811;42.656;23.394;2023-06-26T00:00:12;26.52;;;14.63;;
77722;SDS011;67811;42.656;23.394;2023-06-26T00:02:38;24.42;;;14.18;;
77722;SDS011;67811;42.656;23.394;2023-06-26T00:05:04;26.70;;;13.38;;
77722;SDS011;67811;42.656;23.394;2023-06-26T00:07:30;26.58;;;14.13;;
77722;SDS011;67811;42.656;23.394;2023-06-26T00:09:56;25.02;;;13.95;;
77722;SDS011;67811;42.656;23.394;2023-06-26T00:12:22;25.00;;;13.93;;
77722;SDS011;67811;42.656;23.394;2023-06-26T00:14:47;24.33;;;13.73;;
77722;SDS011;67811;42.656;23.394;2023-06-26T00:17:13;28.52;;;15.05;;
77722;SDS011;67811;42.656;23.394;2023-06-26T00:19:38;25.15;;;13.68;;
77722;SDS011;67811;42.656;23.394;2023-06-26T00:22:03;26.00;;;13.73;;
77722;SDS011;67811;42.656;23.394;2023-06-26T00:24:29;22.60;;;13.25;;
77722;SDS011;67811;42.656;23.394;2023-06-26T00:26:54;22.23;;;13.48;;
77722;SDS011;67811;42.656;23.394;2023-06-26T00:29:19;25.38;;;14.80;;
77722;SDS011;67811;42.656;23.394;2023-06-26T00:31:44;22.30;;;12.30;;
77722;SDS011;67811;42.656;23.394;2023-06-26T00:34:10;22.52;;;13.07;;
77722;SDS011;67811;42.656;23.394;2023-06-26T00:36:35;22.33;;;13.20;;
77722;SDS011;67811;42.656;23.394;2023-06-26T00:39:00;22.45;;;13.50;;
77722;SDS011;67811;42.656;23.394;2023-06-26T00:41:25;21.98;;;13.20;;
77722;SDS011;67811;42.656;23.394;2023-06-26T00:43:51;21.83;;;13.30;;
77722;SDS011;67811;42.656;23.394;2023-06-26T00:46:16;22.23;;;13.65;;
77722;SDS011;67811;42.656;23.394;2023-06-26T00:48:42;21.35;;;12.57;;
77722;SDS011;67811;42.656;23.394;2023-06-26T00:51:09;17.38;;;11.40;;
77722;SDS011;67811;42.656;23.394;2023-06-26T00:53:34;20.95;;;11.38;;
77722;SDS011;67811;42.656;23.394;2023-06-26T00:56:00;17.98;;;11.20;;
77722;SDS011;67811;42.656;23.394;2023-06-26T00:58:27;15.30;;;10.57;;
77722;SDS011;67811;42.656;23.394;2023-06-26T01:00:52;20.98;;;12.05;;
77722;SDS011;67811;42.656;23.394;2023-06-26T01:03:22;23.48;;;10.68;;
77722;SDS011;67811;42.656;23.394;2023-06-26T01:05:49;17.63;;;11.50;;
77722;SDS011;67811;42.656;23.394;2023-06-26T01:08:19;18.90;;;12.60;;
77722;SDS011;67811;42.656;23.394;2023-06-26T01:10:45;21.20;;;11.40;;
77722;SDS011;67811;42.656;23.394;2023-06-26T01:13:11;18.70;;;11.13;;
77722;SDS011;67811;42.656;23.394;2023-06-26T01:15:37;18.90;;;12.98;;
77722;SDS011;67811;42.656;23.394;2023-06-26T01:18:02;17.08;;;10.80;;
77722;SDS011;67811;42.656;23.394;2023-06-26T01:20:34;20.10;;;10.82;;
77722;SDS011;67811;42.656;23.394;2023-06-26T01:25:32;15.23;;;9.93;;
77722;SDS011;67811;42.656;23.394;2023-06-26T01:27:59;14.18;;;9.90;;
77722;SDS011;67811;42.656;23.394;2023-06-26T01:30:25;14.65;;;10.02;;
77722;SDS011;67811;42.656;23.394;2023-06-26T01:32:52;15.85;;;9.82;;
77722;SDS011;67811;42.656;23.394;2023-06-26T01:35:18;15.48;;;10.27;;
77722;SDS011;67811;42.656;23.394;2023-06-26T01:37:44;15.82;;;10.63;;
77722;SDS011;67811;42.656;23.394;2023-06-26T01:40:09;18.80;;;10.73;;
77722;SDS011;67811;42.656;23.394;2023-06-26T01:42:35;14.65;;;10.25;;
77722;SDS011;67811;42.656;23.394;2023-06-26T01:45:02;14.30;;;10.18;;
77722;SDS011;67811;42.656;23.394;2023-06-26T01:47:35;17.27;;;9.90;;
77722;SDS011;67811;42.656;23.394;2023-06-26T01:50:06;17.80;;;9.23;;
77722;SDS011;67811;42.656;23.394;2023-06-26T01:57:45;13.93;;;9.35;;
77722;SDS011;67811;42.656;23.394;2023-06-26T02:00:11;17.27;;;10.48;;
77722;SDS011;67811;42.656;23.394;2023-06-26T02:02:40;16.75;;;11.23;;
77722;SDS011;67811;42.656;23.394;2023-06-26T02:05:06;15.32;;;9.73;;
77722;SDS011;67811;42.656;23.394;2023-06-26T02:07:32;15.30;;;10.30;;
77722;SDS011;67811;42.656;23.394;2023-06-26T02:09:57;16.35;;;9.50;;
77722;SDS011;67811;42.656;23.394;2023-06-26T02:12:22;17.98;;;11.25;;
77722;SDS011;67811;42.656;23.394;2023-06-26T02:14:48;17.73;;;10.80;;
77722;SDS011;67811;42.656;23.394;2023-06-26T02:17:13;15.85;;;9.85;;
77722;SDS011;67811;42.656;23.394;2023-06-26T02:19:38;14.95;;;10.18;;
77722;SDS011;67811;42.656;23.394;2023-06-26T02:22:03;17.67;;;11.32;;
77722;SDS011;67811;42.656;23.394;2023-06-26T02:24:29;16.20;;;9.75;;
77722;SDS011;67811;42.656;23.394;2023-06-26T02:26:54;16.55;;;10.70;;
77722;SDS011;67811;42.656;23.394;2023-06-26T02:29:19;17.05;;;11.68;;
77722;SDS011;67811;42.656;23.394;2023-06-26T02:31:44;19.05;;;10.90;;
77722;SDS011;67811;42.656;23.394;2023-06-26T02:34:10;18.05;;;11.65;;
77722;SDS011;67811;42.656;23.394;2023-06-26T02:36:35;16.27;;;11.20;;
77722;SDS011;67811;42.656;23.394;2023-06-26T02:39:01;16.88;;;10.93;;
77722;SDS011;67811;42.656;23.394;2023-06-26T02:41:26;19.60;;;11.30;;
77722;SDS011;67811;42.656;23.394;2023-06-26T02:43:51;19.02;;;12.55;;
77722;SDS011;67811;42.656;23.394;2023-06-26T02:46:16;16.98;;;11.60;;
77722;SDS011;67811;42.656;23.394;2023-06-26T02:48:42;18.00;;;10.77;;
77722;SDS011;67811;42.656;23.394;2023-06-26T02:51:07;18.33;;;11.70;;
77722;SDS011;67811;42.656;23.394;2023-06-26T02:53:33;22.10;;;12.88;;
77722;SDS011;67811;42.656;23.394;2023-06-26T02:55:58;18.73;;;11.68;;
77722;SDS011;67811;42.656;23.394;2023-06-26T02:58:23;19.85;;;13.20;;
77722;SDS011;67811;42.656;23.394;2023-06-26T03:00:48;20.67;;;13.48;;
77722;SDS011;67811;42.656;23.394;2023-06-26T03:03:14;20.48;;;13.32;;
77722;SDS011;67811;42.656;23.394;2023-06-26T03:05:39;19.77;;;13.30;;
77722;SDS011;67811;42.656;23.394;2023-06-26T03:08:04;20.77;;;13.32;;
77722;SDS011;67811;42.656;23.394;2023-06-26T03:10:30;22.10;;;14.75;;
77722;SDS011;67811;42.656;23.394;2023-06-26T03:12:55;22.90;;;14.50;;
77722;SDS011;67811;42.656;23.394;2023-06-26T03:15:20;21.55;;;14.48;;
77722;SDS011;67811;42.656;23.394;2023-06-26T03:17:46;22.63;;;13.23;;
77722;SDS011;67811;42.656;23.394;2023-06-26T03:20:11;23.35;;;14.43;;
77722;SDS011;67811;42.656;23.394;2023-06-26T03:22:36;25.20;;;15.50;;
77722;SDS011;67811;42.656;23.394;2023-06-26T03:25:02;22.38;;;14.95;;
77722;SDS011;67811;42.656;23.394;2023-06-26T03:27:28;19.58;;;14.00;;
77722;SDS011;67811;42.656;23.394;2023-06-26T03:29:53;21.02;;;14.10;;
77722;SDS011;67811;42.656;23.394;2023-06-26T03:32:18;19.38;;;13.52;;
77722;SDS011;67811;42.656;23.394;2023-06-26T03:34:43;23.85;;;14.75;;
77722;SDS011;67811;42.656;23.394;2023-06-26T03:37:09;19.17;;;13.82;;
77722;SDS011;67811;42.656;23.394;2023-06-26T03:39:34;22.00;;;14.07;;
77722;SDS011;67811;42.656;23.394;2023-06-26T03:41:59;21.17;;;14.10;;
77722;SDS011;67811;42.656;23.394;2023-06-26T03:44:25;24.58;;;14.27;;
77722;SDS011;67811;42.656;23.394;2023-06-26T03:46:50;20.40;;;13.55;;
77722;SDS011;67811;42.656;23.394;2023-06-26T03:49:15;22.52;;;14.85;;
77722;SDS011;67811;42.656;23.394;2023-06-26T03:51:40;20.83;;;14.15;;
77722;SDS011;67811;42.656;23.394;2023-06-26T03:54:06;23.58;;;14.27;;
77722;SDS011;67811;42.656;23.394;2023-06-26T03:56:31;22.95;;;15.10;;
77722;SDS011;67811;42.656;23.394;2023-06-26T03:58:56;20.98;;;13.00;;
77722;SDS011;67811;42.656;23.394;2023-06-26T04:01:21;21.88;;;14.38;;
77722;SDS011;67811;42.656;23.394;2023-06-26T04:03:47;23.90;;;14.25;;
77722;SDS011;67811;42.656;23.394;2023-06-26T04:06:12;20.50;;;13.77;;
77722;SDS011;67811;42.656;23.394;2023-06-26T04:08:37;23.15;;;15.82;;
77722;SDS011;67811;42.656;23.394;2023-06-26T04:11:02;24.20;;;15.38;;
77722;SDS011;67811;42.656;23.394;2023-06-26T04:13:28;23.65;;;15.50;;
77722;SDS011;67811;42.656;23.394;2023-06-26T04:15:53;25.35;;;13.85;;
77722;SDS011;67811;42.656;23.394;2023-06-26T04:18:18;24.17;;;14.95;;
77722;SDS011;67811;42.656;23.394;2023-06-26T04:23:29;19.67;;;13.80;;
77722;SDS011;67811;42.656;23.394;2023-06-26T04:25:54;20.02;;;13.00;;
77722;SDS011;67811;42.656;23.394;2023-06-26T04:28:19;20.90;;;13.13;;
77722;SDS011;67811;42.656;23.394;2023-06-26T04:30:44;20.73;;;13.50;;
77722;SDS011;67811;42.656;23.394;2023-06-26T04:33:10;20.73;;;14.02;;
77722;SDS011;67811;42.656;23.394;2023-06-26T04:35:35;24.58;;;13.80;;
77722;SDS011;67811;42.656;23.394;2023-06-26T04:38:00;22.00;;;14.23;;
77722;SDS011;67811;42.656;23.394;2023-06-26T04:40:25;20.08;;;12.98;;
77722;SDS011;67811;42.656;23.394;2023-06-26T04:42:51;20.85;;;13.48;;
77722;SDS011;67811;42.656;23.394;2023-06-26T04:45:16;18.50;;;13.38;;
77722;SDS011;67811;42.656;23.394;2023-06-26T04:47:41;21.48;;;14.38;;
77722;SDS011;67811;42.656;23.394;2023-06-26T04:50:06;22.58;;;14.02;;
77722;SDS011;67811;42.656;23.394;2023-06-26T04:52:32;19.27;;;13.50;;
77722;SDS011;67811;42.656;23.394;2023-06-26T04:54:57;21.80;;;12.98;;
77722;SDS011;67811;42.656;23.394;2023-06-26T04:57:22;19.13;;;12.88;;
77722;SDS011;67811;42.656;23.394;2023-06-26T04:59:48;22.55;;;14.15;;
77722;SDS011;67811;42.656;23.394;2023-06-26T05:02:13;19.80;;;13.13;;
77722;SDS011;67811;42.656;23.394;2023-06-26T05:04:38;21.77;;;13.70;;
77722;SDS011;67811;42.656;23.394;2023-06-26T05:07:03;20.05;;;13.48;;
77722;SDS011;67811;42.656;23.394;2023-06-26T05:09:29;19.90;;;12.38;;
77722;SDS011;67811;42.656;23.394;2023-06-26T05:11:54;22.88;;;12.48;;
77722;SDS011;67811;42.656;23.394;2023-06-26T05:14:19;23.55;;;13.63;;
77722;SDS011;67811;42.656;23.394;2023-06-26T05:16:45;21.77;;;13.52;;
77722;SDS011;67811;42.656;23.394;2023-06-26T05:19:10;21.42;;;14.70;;
77722;SDS011;67811;42.656;23.394;2023-06-26T05:21:35;21.40;;;13.88;;
77722;SDS011;67811;42.656;23.394;2023-06-26T05:24:01;22.52;;;14.98;;
77722;SDS011;67811;42.656;23.394;2023-06-26T05:26:27;22.30;;;14.68;;
77722;SDS011;67811;42.656;23.394;2023-06-26T05:28:53;17.35;;;12.75;;
77722;SDS011;67811;42.656;23.394;2023-06-26T05:31:19;19.00;;;13.35;;
77722;SDS011;67811;42.656;23.394;2023-06-26T05:33:44;20.45;;;12.40;;
77722;SDS011;67811;42.656;23.394;2023-06-26T05:36:11;21.92;;;12.63;;
77722;SDS011;67811;42.656;23.394;2023-06-26T05:38:37;18.58;;;12.02;;
77722;SDS011;67811;42.656;23.394;2023-06-26T05:41:03;17.65;;;12.77;;
77722;SDS011;67811;42.656;23.394;2023-06-26T05:43:28;19.42;;;13.48;;
77722;SDS011;67811;42.656;23.394;2023-06-26T05:45:54;21.02;;;13.05;;
77722;SDS011;67811;42.656;23.394;2023-06-26T05:48:19;23.50;;;14.00;;
77722;SDS011;67811;42.656;23.394;2023-06-26T05:50:44;19.90;;;13.55;;
77722;SDS011;67811;42.656;23.394;2023-06-26T05:53:10;24.65;;;13.25;;
77722;SDS011;67811;42.656;23.394;2023-06-26T05:55:35;20.27;;;12.77;;
77722;SDS011;67811;42.656;23.394;2023-06-26T05:58:01;20.40;;;14.20;;
77722;SDS011;67811;42.656;23.394;2023-06-26T06:00:27;21.10;;;11.82;;
77722;SDS011;67811;42.656;23.394;2023-06-26T06:02:53;17.55;;;12.23;;
77722;SDS011;67811;42.656;23.394;2023-06-26T06:05:19;21.40;;;12.98;;
77722;SDS011;67811;42.656;23.394;2023-06-26T06:07:46;20.45;;;12.60;;
77722;SDS011;67811;42.656;23.394;2023-06-26T06:10:12;14.68;;;10.88;;
77722;SDS011;67811;42.656;23.394;2023-06-26T06:12:37;18.00;;;11.77;;
77722;SDS011;67811;42.656;23.394;2023-06-26T06:15:02;18.08;;;12.63;;
77722;SDS011;67811;42.656;23.394;2023-06-26T06:17:28;18.33;;;12.20;;
77722;SDS011;67811;42.656;23.394;2023-06-26T06:19:53;18.42;;;11.50;;
77722;SDS011;67811;42.656;23.394;2023-06-26T06:22:18;18.95;;;12.15;;
77722;SDS011;67811;42.656;23.394;2023-06-26T06:24:44;17.67;;;10.63;;
77722;SDS011;67811;42.656;23.394;2023-06-26T06:27:09;16.30;;;12.30;;
77722;SDS011;67811;42.656;23.394;2023-06-26T06:29:34;16.23;;;10.30;;
77722;SDS011;67811;42.656;23.394;2023-06-26T06:31:59;15.57;;;10.25;;
77722;SDS011;67811;42.656;23.394;2023-06-26T06:34:25;19.30;;;11.70;;
77722;SDS011;67811;42.656;23.394;2023-06-26T06:36:50;17.60;;;10.40;;
77722;SDS011;67811;42.656;23.394;2023-06-26T06:39:15;16.45;;;11.57;;
77722;SDS011;67811;42.656;23.394;2023-06-26T06:41:41;17.23;;;11.80;;
77722;SDS011;67811;42.656;23.394;2023-06-26T06:44:07;15.82;;;11.05;;
77722;SDS011;67811;42.656;23.394;2023-06-26T06:46:32;16.83;;;11.63;;
77722;SDS011;67811;42.656;23.394;2023-06-26T06:48:57;14.45;;;10.88;;
77722;SDS011;67811;42.656;23.394;2023-06-26T06:51:23;16.08;;;10.20;;
77722;SDS011;67811;42.656;23.394;2023-06-26T06:53:48;17.50;;;10.20;;
77722;SDS011;67811;42.656;23.394;2023-06-26T06:56:13;12.15;;;9.35;;
77722;SDS011;67811;42.656;23.394;2023-06-26T06:58:38;14.15;;;10.68;;
77722;SDS011;67811;42.656;23.394;2023-06-26T07:01:04;16.10;;;9.82;;
77722;SDS011;67811;42.656;23.394;2023-06-26T07:03:29;14.75;;;9.95;;
77722;SDS011;67811;42.656;23.394;2023-06-26T07:05:55;15.02;;;10.52;;
77722;SDS011;67811;42.656;23.394;2023-06-26T07:08:20;12.85;;;9.27;;
77722;SDS011;67811;42.656;23.394;2023-06-26T07:10:46;13.50;;;9.55;;
77722;SDS011;67811;42.656;23.394;2023-06-26T07:13:11;13.65;;;8.23;;
77722;SDS011;67811;42.656;23.394;2023-06-26T07:15:36;11.45;;;8.70;;
77722;SDS011;67811;42.656;23.394;2023-06-26T07:18:02;12.32;;;7.65;;
77722;SDS011;67811;42.656;23.394;2023-06-26T07:20:27;9.98;;;7.20;;
77722;SDS011;67811;42.656;23.394;2023-06-26T07:22:52;14.00;;;8.45;;
77722;SDS011;67811;42.656;23.394;2023-06-26T07:25:18;8.85;;;6.63;;
77722;SDS011;67811;42.656;23.394;2023-06-26T07:27:43;9.43;;;7.53;;
77722;SDS011;67811;42.656;23.394;2023-06-26T07:30:08;13.63;;;7.50;;
77722;SDS011;67811;42.656;23.394;2023-06-26T07:32:34;11.73;;;7.07;;
77722;SDS011;67811;42.656;23.394;2023-06-26T07:35:00;12.35;;;7.88;;
77722;SDS011;67811;42.656;23.394;2023-06-26T07:37:25;12.93;;;7.45;;
77722;SDS011;67811;42.656;23.394;2023-06-26T07:39:51;10.40;;;6.72;;
77722;SDS011;67811;42.656;23.394;2023-06-26T07:42:16;8.13;;;6.40;;
77722;SDS011;67811;42.656;23.394;2023-06-26T07:44:42;11.05;;;7.40;;
77722;SDS011;67811;42.656;23.394;2023-06-26T07:47:07;10.63;;;6.05;;
77722;SDS011;67811;42.656;23.394;2023-06-26T07:49:32;7.65;;;5.75;;
77722;SDS011;67811;42.656;23.394;2023-06-26T07:51:58;8.75;;;7.13;;
77722;SDS011;67811;42.656;23.394;2023-06-26T07:54:23;13.48;;;7.38;;
77722;SDS011;67811;42.656;23.394;2023-06-26T07:56:58;8.70;;;6.68;;
77722;SDS011;67811;42.656;23.394;2023-06-26T07:59:26;9.90;;;6.57;;
77722;SDS011;67811;42.656;23.394;2023-06-26T08:01:53;9.65;;;6.72;;
77722;SDS011;67811;42.656;23.394;2023-06-26T08:06:50;7.05;;;5.60;;
77722;SDS011;67811;42.656;23.394;2023-06-26T08:09:16;10.20;;;5.55;;
77722;SDS011;67811;42.656;23.394;2023-06-26T08:11:43;9.30;;;5.55;;
77722;SDS011;67811;42.656;23.394;2023-06-26T08:14:08;9.85;;;5.18;;
77722;SDS011;67811;42.656;23.394;2023-06-26T08:16:33;10.40;;;5.18;;
77722;SDS011;67811;42.656;23.394;2023-06-26T08:18:58;7.30;;;5.47;;
77722;SDS011;67811;42.656;23.394;2023-06-26T08:21:24;7.22;;;4.90;;
77722;SDS011;67811;42.656;23.394;2023-06-26T08:23:49;6.70;;;5.25;;
77722;SDS011;67811;42.656;23.394;2023-06-26T08:26:15;7.05;;;5.28;;
77722;SDS011;67811;42.656;23.394;2023-06-26T08:28:40;7.55;;;5.00;;
77722;SDS011;67811;42.656;23.394;2023-06-26T08:31:05;11.80;;;5.32;;
77722;SDS011;67811;42.656;23.394;2023-06-26T08:33:30;8.18;;;5.55;;
77722;SDS011;67811;42.656;23.394;2023-06-26T08:35:56;8.38;;;5.60;;
77722;SDS011;67811;42.656;23.394;2023-06-26T08:38:21;8.55;;;5.28;;
77722;SDS011;67811;42.656;23.394;2023-06-26T08:40:47;10.07;;;6.35;;
77722;SDS011;67811;42.656;23.394;2023-06-26T08:43:12;8.50;;;5.00;;
77722;SDS011;67811;42.656;23.394;2023-06-26T08:45:38;10.98;;;5.63;;
77722;SDS011;67811;42.656;23.394;2023-06-26T08:48:03;7.85;;;4.93;;
77722;SDS011;67811;42.656;23.394;2023-06-26T08:50:33;7.43;;;4.90;;
77722;SDS011;67811;42.656;23.394;2023-06-26T08:55:39;6.82;;;5.07;;
77722;SDS011;67811;42.656;23.394;2023-06-26T08:58:06;11.88;;;6.35;;
77722;SDS011;67811;42.656;23.394;2023-06-26T09:00:32;7.32;;;4.63;;
77722;SDS011;67811;42.656;23.394;2023-06-26T09:02:57;10.43;;;5.03;;
77722;SDS011;67811;42.656;23.394;2023-06-26T09:05:23;7.22;;;4.60;;
77722;SDS011;67811;42.656;23.394;2023-06-26T09:07:51;8.52;;;4.40;;
77722;SDS011;67811;42.656;23.394;2023-06-26T09:10:16;8.07;;;5.30;;
77722;SDS011;67811;42.656;23.394;2023-06-26T09:12:42;8.35;;;5.40;;
77722;SDS011;67811;42.656;23.394;2023-06-26T09:15:13;10.18;;;5.40;;
77722;SDS011;67811;42.656;23.394;2023-06-26T09:17:39;7.65;;;5.70;;
77722;SDS011;67811;42.656;23.394;2023-06-26T09:20:05;7.60;;;4.93;;
77722;SDS011;67811;42.656;23.394;2023-06-26T09:22:33;6.55;;;4.82;;
77722;SDS011;67811;42.656;23.394;2023-06-26T09:25:01;5.97;;;4.22;;
77722;SDS011;67811;42.656;23.394;2023-06-26T09:27:28;7.05;;;4.57;;
77722;SDS011;67811;42.656;23.394;2023-06-26T09:29:53;7.40;;;4.63;;
77722;SDS011;67811;42.656;23.394;2023-06-26T09:32:18;8.93;;;4.45;;
77722;SDS011;67811;42.656;23.394;2023-06-26T09:34:43;8.52;;;4.90;;
77722;SDS011;67811;42.656;23.394;2023-06-26T09:37:11;7.80;;;4.70;;
77722;SDS011;67811;42.656;23.394;2023-06-26T09:39:37;9.75;;;4.95;;
77722;SDS011;67811;42.656;23.394;2023-06-26T09:42:02;6.60;;;5.40;;
77722;SDS011;67811;42.656;23.394;2023-06-26T09:44:30;8.48;;;4.53;;
77722;SDS011;67811;42.656;23.394;2023-06-26T09:46:55;5.45;;;3.97;;
77722;SDS011;67811;42.656;23.394;2023-06-26T09:49:21;7.72;;;4.97;;
77722;SDS011;67811;42.656;23.394;2023-06-26T09:51:48;8.20;;;5.20;;
77722;SDS011;67811;42.656;23.394;2023-06-26T09:54:15;7.35;;;4.68;;
77722;SDS011;67811;42.656;23.394;2023-06-26T09:56:41;8.90;;;5.45;;
77722;SDS011;67811;42.656;23.394;2023-06-26T09:59:07;5.63;;;4.10;;
77722;SDS011;67811;42.656;23.394;2023-06-26T10:01:32;14.38;;;4.95;;
77722;SDS011;67811;42.656;23.394;2023-06-26T10:04:01;7.18;;;4.38;;
77722;SDS011;67811;42.656;23.394;2023-06-26T10:09:01;7.90;;;4.50;;
77722;SDS011;67811;42.656;23.394;2023-06-26T10:11:32;8.27;;;4.35;;
77722;SDS011;67811;42.656;23.394;2023-06-26T10:14:08;6.65;;;4.78;;
77722;SDS011;67811;42.656;23.394;2023-06-26T10:16:36;9.38;;;5.18;;
77722;SDS011;67811;42.656;23.394;2023-06-26T10:19:05;9.65;;;5.72;;
77722;SDS011;67811;42.656;23.394;2023-06-26T10:21:33;6.90;;;4.60;;
77722;SDS011;67811;42.656;23.394;2023-06-26T10:23:59;15.15;;;4.93;;
77722;SDS011;67811;42.656;23.394;2023-06-26T10:26:27;6.43;;;4.03;;
77722;SDS011;67811;42.656;23.394;2023-06-26T10:28:53;11.60;;;5.40;;
77722;SDS011;67811;42.656;23.394;2023-06-26T10:31:22;10.73;;;5.55;;
77722;SDS011;67811;42.656;23.394;2023-06-26T10:33:50;10.60;;;6.03;;
77722;SDS011;67811;42.656;23.394;2023-06-26T10:36:16;9.27;;;5.75;;
77722;SDS011;67811;42.656;23.394;2023-06-26T10:38:53;8.80;;;5.70;;
77722;SDS011;67811;42.656;23.394;2023-06-26T10:41:21;8.07;;;5.20;;
77722;SDS011;67811;42.656;23.394;2023-06-26T10:46:50;8.07;;;5.57;;
77722;SDS011;67811;42.656;23.394;2023-06-26T10:49:17;11.38;;;4.78;;
77722;SDS011;67811;42.656;23.394;2023-06-26T10:51:49;10.10;;;6.38;;
77722;SDS011;67811;42.656;23.394;2023-06-26T10:54:15;10.27;;;5.43;;
77722;SDS011;67811;42.656;23.394;2023-06-26T10:59:18;11.43;;;5.45;;
77722;SDS011;67811;42.656;23.394;2023-06-26T11:01:58;8.82;;;6.03;;
77722;SDS011;67811;42.656;23.394;2023-06-26T11:04:42;10.55;;;6.13;;
77722;SDS011;67811;42.656;23.394;2023-06-26T11:07:25;11.25;;;5.18;;
77722;SDS011;67811;42.656;23.394;2023-06-26T11:10:01;7.90;;;5.43;;
77722;SDS011;67811;42.656;23.394;2023-06-26T11:12:36;9.50;;;5.72;;
77722;SDS011;67811;42.656;23.394;2023-06-26T11:15:09;13.25;;;5.32;;
77722;SDS011;67811;42.656;23.394;2023-06-26T11:17:36;10.98;;;5.45;;
77722;SDS011;67811;42.656;23.394;2023-06-26T11:20:02;10.60;;;4.63;;
77722;SDS011;67811;42.656;23.394;2023-06-26T11:22:30;6.97;;;4.38;;
77722;SDS011;67811;42.656;23.394;2023-06-26T11:24:59;7.10;;;5.18;;
77722;SDS011;67811;42.656;23.394;2023-06-26T11:29:55;7.28;;;4.18;;
77722;SDS011;67811;42.656;23.394;2023-06-26T11:32:20;7.90;;;5.38;;
77722;SDS011;67811;42.656;23.394;2023-06-26T11:34:45;7.82;;;5.00;;
77722;SDS011;67811;42.656;23.394;2023-06-26T11:37:12;12.73;;;5.10;;
77722;SDS011;67811;42.656;23.394;2023-06-26T11:39:45;9.40;;;4.75;;
77722;SDS011;67811;42.656;23.394;2023-06-26T11:42:10;8.02;;;5.35;;
77722;SDS011;67811;42.656;23.394;2023-06-26T11:44:45;7.63;;;4.60;;
77722;SDS011;67811;42.656;23.394;2023-06-26T11:47:14;7.70;;;4.68;;
77722;SDS011;67811;42.656;23.394;2023-06-26T11:49:41;6.28;;;4.28;;
77722;SDS011;67811;42.656;23.394;2023-06-26T11:52:10;9.38;;;4.30;;
77722;SDS011;67811;42.656;23.394;2023-06-26T11:54:36;8.80;;;4.65;;
77722;SDS011;67811;42.656;23.394;2023-06-26T11:57:01;8.88;;;4.40;;
77722;SDS011;67811;42.656;23.394;2023-06-26T11:59:36;7.80;;;3.92;;
77722;SDS011;67811;42.656;23.394;2023-06-26T12:02:07;7.22;;;4.10;;
77722;SDS011;67811;42.656;23.394;2023-06-26T12:04:34;7.28;;;4.20;;
77722;SDS011;67811;42.656;23.394;2023-06-26T12:07:01;6.30;;;4.15;;
77722;SDS011;67811;42.656;23.394;2023-06-26T12:09:27;9.05;;;4.40;;
77722;SDS011;67811;42.656;23.394;2023-06-26T12:11:53;6.32;;;4.50;;
77722;SDS011;67811;42.656;23.394;2023-06-26T12:14:21;7.30;;;3.95;;
77722;SDS011;67811;42.656;23.394;2023-06-26T12:16:48;7.50;;;4.28;;
77722;SDS011;67811;42.656;23.394;2023-06-26T12:19:13;7.97;;;4.70;;
77722;SDS011;67811;42.656;23.394;2023-06-26T12:24:04;6.10;;;3.90;;
77722;SDS011;67811;42.656;23.394;2023-06-26T12:31:29;10.90;;;4.93;;
77722;SDS011;67811;42.656;23.394;2023-06-26T12:33:56;8.20;;;4.50;;
77722;SDS011;67811;42.656;23.394;2023-06-26T12:36:24;7.20;;;4.47;;
77722;SDS011;67811;42.656;23.394;2023-06-26T12:38:49;8.43;;;4.07;;
77722;SDS011;67811;42.656;23.394;2023-06-26T12:41:15;9.80;;;4.82;;
77722;SDS011;67811;42.656;23.394;2023-06-26T12:43:41;6.97;;;4.32;;
77722;SDS011;67811;42.656;23.394;2023-06-26T12:46:07;10.20;;;3.80;;
77722;SDS011;67811;42.656;23.394;2023-06-26T12:48:39;6.18;;;4.15;;
77722;SDS011;67811;42.656;23.394;2023-06-26T12:51:12;7.25;;;4.22;;
77722;SDS011;67811;42.656;23.394;2023-06-26T12:53:39;6.43;;;3.72;;
77722;SDS011;67811;42.656;23.394;2023-06-26T12:56:05;6.93;;;4.20;;
77722;SDS011;67811;42.656;23.394;2023-06-26T12:58:31;11.55;;;3.92;;
77722;SDS011;67811;42.656;23.394;2023-06-26T13:00:56;7.35;;;4.20;;
77722;SDS011;67811;42.656;23.394;2023-06-26T13:03:21;7.75;;;4.65;;
77722;SDS011;67811;42.656;23.394;2023-06-26T13:05:46;10.05;;;4.60;;
77722;SDS011;67811;42.656;23.394;2023-06-26T13:08:12;8.00;;;4.82;;
77722;SDS011;67811;42.656;23.394;2023-06-26T13:10:37;9.98;;;5.10;;
77722;SDS011;67811;42.656;23.394;2023-06-26T13:13:02;9.05;;;5.07;;
77722;SDS011;67811;42.656;23.394;2023-06-26T13:15:27;7.85;;;4.82;;
77722;SDS011;67811;42.656;23.394;2023-06-26T13:17:53;8.38;;;4.25;;
77722;SDS011;67811;42.656;23.394;2023-06-26T13:20:18;8.45;;;5.40;;
77722;SDS011;67811;42.656;23.394;2023-06-26T13:22:43;7.80;;;4.55;;
77722;SDS011;67811;42.656;23.394;2023-06-26T13:25:08;9.15;;;5.07;;
77722;SDS011;67811;42.656;23.394;2023-06-26T13:27:34;6.75;;;4.88;;
77722;SDS011;67811;42.656;23.394;2023-06-26T13:29:59;7.97;;;4.20;;
77722;SDS011;67811;42.656;23.394;2023-06-26T13:32:24;8.20;;;4.95;;
77722;SDS011;67811;42.656;23.394;2023-06-26T13:34:49;8.32;;;3.80;;
77722;SDS011;67811;42.656;23.394;2023-06-26T13:37:15;9.93;;;4.50;;
77722;SDS011;67811;42.656;23.394;2023-06-26T13:39:40;10.75;;;4.25;;
77722;SDS011;67811;42.656;23.394;2023-06-26T13:42:05;8.35;;;4.35;;
77722;SDS011;67811;42.656;23.394;2023-06-26T13:44:31;7.20;;;4.38;;
77722;SDS011;67811;42.656;23.394;2023-06-26T13:46:56;6.95;;;4.15;;
77722;SDS011;67811;42.656;23.394;2023-06-26T13:49:21;7.93;;;4.45;;
77722;SDS011;67811;42.656;23.394;2023-06-26T13:51:46;7.13;;;4.40;;
77722;SDS011;67811;42.656;23.394;2023-06-26T13:54:12;6.28;;;4.45;;
77722;SDS011;67811;42.656;23.394;2023-06-26T13:56:37;10.77;;;5.53;;
77722;SDS011;67811;42.656;23.394;2023-06-26T13:59:02;7.93;;;4.70;;
77722;SDS011;67811;42.656;23.394;2023-06-26T14:01:28;7.40;;;5.07;;
77722;SDS011;67811;42.656;23.394;2023-06-26T14:03:54;7.53;;;4.35;;
77722;SDS011;67811;42.656;23.394;2023-06-26T14:06:19;8.63;;;4.82;;
77722;SDS011;67811;42.656;23.394;2023-06-26T14:08:44;7.80;;;4.82;;
77722;SDS011;67811;42.656;23.394;2023-06-26T14:11:09;6.93;;;4.32;;
77722;SDS011;67811;42.656;23.394;2023-06-26T14:13:35;7.07;;;4.90;;
77722;SDS011;67811;42.656;23.394;2023-06-26T14:16:00;12.32;;;5.18;;
77722;SDS011;67811;42.656;23.394;2023-06-26T14:18:25;6.90;;;4.78;;
77722;SDS011;67811;42.656;23.394;2023-06-26T14:20:51;10.18;;;4.95;;
77722;SDS011;67811;42.656;23.394;2023-06-26T14:23:16;9.93;;;4.72;;
77722;SDS011;67811;42.656;23.394;2023-06-26T14:25:41;9.23;;;5.30;;
77722;SDS011;67811;42.656;23.394;2023-06-26T14:28:06;7.75;;;4.68;;
77722;SDS011;67811;42.656;23.394;2023-06-26T14:30:32;8.50;;;5.22;;
77722;SDS011;67811;42.656;23.394;2023-06-26T14:32:57;8.90;;;4.93;;
77722;SDS011;67811;42.656;23.394;2023-06-26T14:35:22;13.88;;;5.50;;
77722;SDS011;67811;42.656;23.394;2023-06-26T14:37:48;7.80;;;5.07;;
77722;SDS011;67811;42.656;23.394;2023-06-26T14:40:13;9.52;;;5.45;;
77722;SDS011;67811;42.656;23.394;2023-06-26T14:42:38;6.82;;;4.85;;
77722;SDS011;67811;42.656;23.394;2023-06-26T14:45:03;8.57;;;4.85;;
77722;SDS011;67811;42.656;23.394;2023-06-26T14:47:29;7.70;;;4.93;;